sensor_id;sensor_type;location;lat;lon;timestamp;P1;durP1;ratioP1;P2;durP2;ratioP2
31782;SDS011;18351;47.560;9.708;2023-04-15T00:01:05;10.85;;;3.20;;
31782;SDS011;18351;47.560;9.708;2023-04-15T00:03:30;7.82;;;2.97;;
31782;SDS011;18351;47.560;9.708;2023-04-15T00:05:58;4.38;;;2.60;;
31782;SDS011;18351;47.560;9.708;2023-04-15T00:08:23;4.72;;;2.80;;
31782;SDS011;18351;47.560;9.708;2023-04-15T00:10:49;7.10;;;2.90;;
31782;SDS011;18351;47.560;9.708;2023-04-15T00:13:15;5.10;;;2.40;;
31782;SDS011;18351;47.560;9.708;2023-04-15T00:15:40;6.38;;;2.25;;
31782;SDS011;18351;47.560;9.708;2023-04-15T00:18:07;4.55;;;2.35;;
31782;SDS011;18351;47.560;9.708;2023-04-15T00:20:33;5.65;;;2.47;;
31782;SDS011;18351;47.560;9.708;2023-04-15T00:22:59;3.03;;;2.10;;
31782;SDS011;18351;47.560;9.708;2023-04-15T00:25:26;3.88;;;2.53;;
31782;SDS011;18351;47.560;9.708;2023-04-15T00:27:52;6.57;;;2.53;;
31782;SDS011;18351;47.560;9.708;2023-04-15T00:30:17;4.43;;;2.50;;
31782;SDS011;18351;47.560;9.708;2023-04-15T00:32:43;7.80;;;2.40;;
31782;SDS011;18351;47.560;9.708;2023-04-15T00:35:09;5.90;;;2.47;;
31782;SDS011;18351;47.560;9.708;2023-04-15T00:37:35;4.57;;;2.45;;
31782;SDS011;18351;47.560;9.708;2023-04-15T00:40:01;6.15;;;1.95;;
31782;SDS011;18351;47.560;9.708;2023-04-15T00:42:29;5.00;;;2.83;;
31782;SDS011;18351;47.560;9.708;2023-04-15T00:44:55;4.47;;;1.58;;
31782;SDS011;18351;47.560;9.708;2023-04-15T00:47:21;2.30;;;2.00;;
31782;SDS011;18351;47.560;9.708;2023-04-15T00:49:47;3.65;;;1.80;;
31782;SDS011;18351;47.560;9.708;2023-04-15T00:52:12;12.20;;;2.13;;
31782;SDS011;18351;47.560;9.708;2023-04-15T00:54:38;2.08;;;1.70;;
31782;SDS011;18351;47.560;9.708;2023-04-15T00:57:05;4.65;;;1.95;;
31782;SDS011;18351;47.560;9.708;2023-04-15T00:59:31;4.70;;;1.98;;
31782;SDS011;18351;47.560;9.708;2023-04-15T01:01:57;2.95;;;2.00;;
31782;SDS011;18351;47.560;9.708;2023-04-15T01:04:23;4.57;;;3.35;;
31782;SDS011;18351;47.560;9.708;2023-04-15T01:06:49;3.92;;;2.13;;
31782;SDS011;18351;47.560;9.708;2023-04-15T01:09:15;5.97;;;1.98;;
31782;SDS011;18351;47.560;9.708;2023-04-15T01:11:41;4.57;;;2.20;;
31782;SDS011;18351;47.560;9.708;2023-04-15T01:14:08;8.23;;;1.55;;
31782;SDS011;18351;47.560;9.708;2023-04-15T01:16:35;3.40;;;1.90;;
31782;SDS011;18351;47.560;9.708;2023-04-15T01:19:04;3.42;;;2.00;;
31782;SDS011;18351;47.560;9.708;2023-04-15T01:21:33;5.65;;;2.38;;
31782;SDS011;18351;47.560;9.708;2023-04-15T01:24:03;4.60;;;1.90;;
31782;SDS011;18351;47.560;9.708;2023-04-15T01:26:32;2.75;;;1.60;;
31782;SDS011;18351;47.560;9.708;2023-04-15T01:28:58;3.80;;;1.80;;
31782;SDS011;18351;47.560;9.708;2023-04-15T01:31:24;4.45;;;1.95;;
31782;SDS011;18351;47.560;9.708;2023-04-15T01:33:49;4.30;;;2.80;;
31782;SDS011;18351;47.560;9.708;2023-04-15T01:36:15;4.70;;;1.95;;
31782;SDS011;18351;47.560;9.708;2023-04-15T01:38:40;2.80;;;1.98;;
31782;SDS011;18351;47.560;9.708;2023-04-15T01:41:06;3.15;;;2.00;;
31782;SDS011;18351;47.560;9.708;2023-04-15T01:43:32;6.88;;;2.17;;
31782;SDS011;18351;47.560;9.708;2023-04-15T01:46:01;4.72;;;1.95;;
31782;SDS011;18351;47.560;9.708;2023-04-15T01:48:27;2.47;;;1.70;;
31782;SDS011;18351;47.560;9.708;2023-04-15T01:50:53;4.03;;;1.77;;
31782;SDS011;18351;47.560;9.708;2023-04-15T01:53:21;4.30;;;2.55;;
31782;SDS011;18351;47.560;9.708;2023-04-15T01:55:47;4.53;;;1.95;;
31782;SDS011;18351;47.560;9.708;2023-04-15T01:58:13;3.22;;;1.50;;
31782;SDS011;18351;47.560;9.708;2023-04-15T02:00:39;2.95;;;1.73;;
31782;SDS011;18351;47.560;9.708;2023-04-15T02:03:05;4.50;;;1.50;;
31782;SDS011;18351;47.560;9.708;2023-04-15T02:05:30;5.00;;;1.58;;
31782;SDS011;18351;47.560;9.708;2023-04-15T02:07:56;2.65;;;1.67;;
31782;SDS011;18351;47.560;9.708;2023-04-15T02:10:22;4.55;;;2.13;;
31782;SDS011;18351;47.560;9.708;2023-04-15T02:12:47;2.58;;;1.63;;
31782;SDS011;18351;47.560;9.708;2023-04-15T02:15:13;3.78;;;1.48;;
31782;SDS011;18351;47.560;9.708;2023-04-15T02:17:39;2.88;;;1.85;;
31782;SDS011;18351;47.560;9.708;2023-04-15T02:20:05;2.35;;;1.70;;
31782;SDS011;18351;47.560;9.708;2023-04-15T02:22:32;2.05;;;1.60;;
31782;SDS011;18351;47.560;9.708;2023-04-15T02:24:58;4.20;;;1.50;;
31782;SDS011;18351;47.560;9.708;2023-04-15T02:27:24;7.18;;;1.95;;
31782;SDS011;18351;47.560;9.708;2023-04-15T02:29:49;2.53;;;1.70;;
31782;SDS011;18351;47.560;9.708;2023-04-15T02:32:15;3.28;;;2.03;;
31782;SDS011;18351;47.560;9.708;2023-04-15T02:34:41;3.53;;;1.60;;
31782;SDS011;18351;47.560;9.708;2023-04-15T02:37:10;1.60;;;1.50;;
31782;SDS011;18351;47.560;9.708;2023-04-15T02:39:36;2.50;;;1.73;;
31782;SDS011;18351;47.560;9.708;2023-04-15T02:42:02;2.60;;;1.77;;
31782;SDS011;18351;47.560;9.708;2023-04-15T02:44:29;3.42;;;1.98;;
31782;SDS011;18351;47.560;9.708;2023-04-15T02:46:55;4.63;;;1.95;;
31782;SDS011;18351;47.560;9.708;2023-04-15T02:49:22;3.42;;;2.00;;
31782;SDS011;18351;47.560;9.708;2023-04-15T02:51:48;2.63;;;1.70;;
31782;SDS011;18351;47.560;9.708;2023-04-15T02:54:17;2.80;;;1.70;;
31782;SDS011;18351;47.560;9.708;2023-04-15T02:56:44;3.05;;;2.10;;
31782;SDS011;18351;47.560;9.708;2023-04-15T02:59:10;5.70;;;2.00;;
31782;SDS011;18351;47.560;9.708;2023-04-15T03:01:36;2.78;;;1.60;;
31782;SDS011;18351;47.560;9.708;2023-04-15T03:04:02;5.40;;;1.90;;
31782;SDS011;18351;47.560;9.708;2023-04-15T03:06:27;2.28;;;1.75;;
31782;SDS011;18351;47.560;9.708;2023-04-15T03:08:53;2.17;;;1.42;;
31782;SDS011;18351;47.560;9.708;2023-04-15T03:11:18;4.30;;;1.75;;
31782;SDS011;18351;47.560;9.708;2023-04-15T03:13:45;2.60;;;1.70;;
31782;SDS011;18351;47.560;9.708;2023-04-15T03:16:11;2.65;;;1.60;;
31782;SDS011;18351;47.560;9.708;2023-04-15T03:18:36;3.38;;;1.67;;
31782;SDS011;18351;47.560;9.708;2023-04-15T03:21:02;2.33;;;1.80;;
31782;SDS011;18351;47.560;9.708;2023-04-15T03:23:29;4.05;;;1.67;;
31782;SDS011;18351;47.560;9.708;2023-04-15T03:25:55;1.40;;;1.30;;
31782;SDS011;18351;47.560;9.708;2023-04-15T03:28:22;9.70;;;2.13;;
31782;SDS011;18351;47.560;9.708;2023-04-15T03:30:47;3.75;;;1.60;;
31782;SDS011;18351;47.560;9.708;2023-04-15T03:33:13;2.88;;;1.50;;
31782;SDS011;18351;47.560;9.708;2023-04-15T03:35:39;2.20;;;1.63;;
31782;SDS011;18351;47.560;9.708;2023-04-15T03:38:04;4.07;;;1.60;;
31782;SDS011;18351;47.560;9.708;2023-04-15T03:40:30;7.57;;;1.83;;
31782;SDS011;18351;47.560;9.708;2023-04-15T03:42:56;3.65;;;1.67;;
31782;SDS011;18351;47.560;9.708;2023-04-15T03:45:21;4.07;;;1.75;;
31782;SDS011;18351;47.560;9.708;2023-04-15T03:47:47;1.55;;;1.45;;
31782;SDS011;18351;47.560;9.708;2023-04-15T03:50:13;4.47;;;1.80;;
31782;SDS011;18351;47.560;9.708;2023-04-15T03:52:39;2.92;;;1.50;;
31782;SDS011;18351;47.560;9.708;2023-04-15T03:55:05;1.70;;;1.60;;
31782;SDS011;18351;47.560;9.708;2023-04-15T03:57:31;4.50;;;2.03;;
31782;SDS011;18351;47.560;9.708;2023-04-15T03:59:56;1.90;;;1.38;;
31782;SDS011;18351;47.560;9.708;2023-04-15T04:02:22;1.85;;;1.63;;
31782;SDS011;18351;47.560;9.708;2023-04-15T04:04:47;3.22;;;1.60;;
31782;SDS011;18351;47.560;9.708;2023-04-15T04:07:14;4.70;;;2.13;;
31782;SDS011;18351;47.560;9.708;2023-04-15T04:09:40;2.80;;;1.98;;
31782;SDS011;18351;47.560;9.708;2023-04-15T04:12:06;3.65;;;2.20;;
31782;SDS011;18351;47.560;9.708;2023-04-15T04:14:31;3.05;;;1.52;;
31782;SDS011;18351;47.560;9.708;2023-04-15T04:16:57;3.88;;;1.80;;
31782;SDS011;18351;47.560;9.708;2023-04-15T04:19:22;2.78;;;1.63;;
31782;SDS011;18351;47.560;9.708;2023-04-15T04:21:48;2.28;;;1.60;;
31782;SDS011;18351;47.560;9.708;2023-04-15T04:24:13;1.98;;;1.60;;
31782;SDS011;18351;47.560;9.708;2023-04-15T04:26:39;4.82;;;2.08;;
31782;SDS011;18351;47.560;9.708;2023-04-15T04:29:05;3.10;;;1.85;;
31782;SDS011;18351;47.560;9.708;2023-04-15T04:31:31;3.08;;;1.70;;
31782;SDS011;18351;47.560;9.708;2023-04-15T04:33:56;1.95;;;1.67;;
31782;SDS011;18351;47.560;9.708;2023-04-15T04:36:22;6.07;;;1.70;;
31782;SDS011;18351;47.560;9.708;2023-04-15T04:38:47;2.33;;;1.60;;
31782;SDS011;18351;47.560;9.708;2023-04-15T04:41:13;4.20;;;1.70;;
31782;SDS011;18351;47.560;9.708;2023-04-15T04:43:38;5.88;;;1.88;;
31782;SDS011;18351;47.560;9.708;2023-04-15T04:46:04;5.30;;;1.85;;
31782;SDS011;18351;47.560;9.708;2023-04-15T04:48:30;4.53;;;2.13;;
31782;SDS011;18351;47.560;9.708;2023-04-15T04:50:55;5.90;;;2.13;;
31782;SDS011;18351;47.560;9.708;2023-04-15T04:53:21;6.05;;;2.00;;
31782;SDS011;18351;47.560;9.708;2023-04-15T04:55:46;2.90;;;1.90;;
31782;SDS011;18351;47.560;9.708;2023-04-15T04:58:12;5.82;;;2.00;;
31782;SDS011;18351;47.560;9.708;2023-04-15T05:00:39;2.85;;;1.83;;
31782;SDS011;18351;47.560;9.708;2023-04-15T05:03:04;7.15;;;2.03;;
31782;SDS011;18351;47.560;9.708;2023-04-15T05:05:30;3.25;;;1.80;;
31782;SDS011;18351;47.560;9.708;2023-04-15T05:07:55;3.70;;;1.88;;
31782;SDS011;18351;47.560;9.708;2023-04-15T05:10:21;2.42;;;1.70;;
31782;SDS011;18351;47.560;9.708;2023-04-15T05:12:46;4.38;;;2.13;;
31782;SDS011;18351;47.560;9.708;2023-04-15T05:15:12;5.70;;;1.88;;
31782;SDS011;18351;47.560;9.708;2023-04-15T05:17:38;3.70;;;1.83;;
31782;SDS011;18351;47.560;9.708;2023-04-15T05:20:03;4.97;;;2.58;;
31782;SDS011;18351;47.560;9.708;2023-04-15T05:22:29;4.55;;;1.98;;
31782;SDS011;18351;47.560;9.708;2023-04-15T05:24:55;3.85;;;1.90;;
31782;SDS011;18351;47.560;9.708;2023-04-15T05:27:20;2.78;;;1.60;;
31782;SDS011;18351;47.560;9.708;2023-04-15T05:29:47;3.38;;;1.75;;
31782;SDS011;18351;47.560;9.708;2023-04-15T05:32:13;3.80;;;2.00;;
31782;SDS011;18351;47.560;9.708;2023-04-15T05:34:39;9.27;;;2.85;;
31782;SDS011;18351;47.560;9.708;2023-04-15T05:37:04;6.47;;;2.17;;
31782;SDS011;18351;47.560;9.708;2023-04-15T05:39:30;4.85;;;2.08;;
31782;SDS011;18351;47.560;9.708;2023-04-15T05:41:56;5.82;;;2.63;;
31782;SDS011;18351;47.560;9.708;2023-04-15T05:44:22;3.17;;;2.03;;
31782;SDS011;18351;47.560;9.708;2023-04-15T05:46:48;3.08;;;1.63;;
31782;SDS011;18351;47.560;9.708;2023-04-15T05:49:13;3.55;;;2.00;;
31782;SDS011;18351;47.560;9.708;2023-04-15T05:51:39;3.38;;;1.40;;
31782;SDS011;18351;47.560;9.708;2023-04-15T05:54:04;2.30;;;1.63;;
31782;SDS011;18351;47.560;9.708;2023-04-15T05:56:30;5.13;;;1.85;;
31782;SDS011;18351;47.560;9.708;2023-04-15T05:58:56;8.98;;;1.80;;
31782;SDS011;18351;47.560;9.708;2023-04-15T06:01:22;12.30;;;2.53;;
31782;SDS011;18351;47.560;9.708;2023-04-15T06:03:47;5.20;;;1.70;;
31782;SDS011;18351;47.560;9.708;2023-04-15T06:06:13;3.45;;;1.65;;
31782;SDS011;18351;47.560;9.708;2023-04-15T06:08:39;2.60;;;1.40;;
31782;SDS011;18351;47.560;9.708;2023-04-15T06:11:05;4.35;;;1.77;;
31782;SDS011;18351;47.560;9.708;2023-04-15T06:13:31;3.60;;;1.77;;
31782;SDS011;18351;47.560;9.708;2023-04-15T06:15:56;4.35;;;2.15;;
31782;SDS011;18351;47.560;9.708;2023-04-15T06:18:22;4.60;;;1.63;;
31782;SDS011;18351;47.560;9.708;2023-04-15T06:20:47;6.35;;;1.75;;
31782;SDS011;18351;47.560;9.708;2023-04-15T06:23:13;5.22;;;1.80;;
31782;SDS011;18351;47.560;9.708;2023-04-15T06:25:39;6.07;;;1.58;;
31782;SDS011;18351;47.560;9.708;2023-04-15T06:28:05;5.43;;;2.00;;
31782;SDS011;18351;47.560;9.708;2023-04-15T06:30:30;2.33;;;1.45;;
31782;SDS011;18351;47.560;9.708;2023-04-15T06:32:56;1.73;;;1.40;;
31782;SDS011;18351;47.560;9.708;2023-04-15T06:35:21;2.60;;;1.40;;
31782;SDS011;18351;47.560;9.708;2023-04-15T06:37:47;4.30;;;1.40;;
31782;SDS011;18351;47.560;9.708;2023-04-15T06:40:13;2.22;;;1.33;;
31782;SDS011;18351;47.560;9.708;2023-04-15T06:42:38;4.03;;;1.33;;
31782;SDS011;18351;47.560;9.708;2023-04-15T06:45:04;4.97;;;1.52;;
31782;SDS011;18351;47.560;9.708;2023-04-15T06:47:30;2.25;;;1.40;;
31782;SDS011;18351;47.560;9.708;2023-04-15T06:49:56;1.75;;;1.20;;
31782;SDS011;18351;47.560;9.708;2023-04-15T06:52:21;3.25;;;1.70;;
31782;SDS011;18351;47.560;9.708;2023-04-15T06:54:47;2.05;;;1.33;;
31782;SDS011;18351;47.560;9.708;2023-04-15T06:57:12;3.13;;;1.40;;
31782;SDS011;18351;47.560;9.708;2023-04-15T06:59:38;2.33;;;1.20;;
31782;SDS011;18351;47.560;9.708;2023-04-15T07:02:04;6.82;;;2.03;;
31782;SDS011;18351;47.560;9.708;2023-04-15T07:04:29;2.00;;;1.30;;
31782;SDS011;18351;47.560;9.708;2023-04-15T07:06:55;2.15;;;1.40;;
31782;SDS011;18351;47.560;9.708;2023-04-15T07:09:22;2.65;;;1.30;;
31782;SDS011;18351;47.560;9.708;2023-04-15T07:11:47;3.03;;;1.42;;
31782;SDS011;18351;47.560;9.708;2023-04-15T07:14:13;3.88;;;1.45;;
31782;SDS011;18351;47.560;9.708;2023-04-15T07:16:39;2.88;;;1.50;;
31782;SDS011;18351;47.560;9.708;2023-04-15T07:19:04;2.63;;;1.50;;
31782;SDS011;18351;47.560;9.708;2023-04-15T07:21:30;2.38;;;1.60;;
31782;SDS011;18351;47.560;9.708;2023-04-15T07:23:56;3.83;;;1.40;;
31782;SDS011;18351;47.560;9.708;2023-04-15T07:26:22;2.38;;;1.38;;
31782;SDS011;18351;47.560;9.708;2023-04-15T07:28:48;2.33;;;1.40;;
31782;SDS011;18351;47.560;9.708;2023-04-15T07:31:14;4.07;;;1.60;;
31782;SDS011;18351;47.560;9.708;2023-04-15T07:33:40;2.40;;;1.75;;
31782;SDS011;18351;47.560;9.708;2023-04-15T07:36:06;2.13;;;1.70;;
31782;SDS011;18351;47.560;9.708;2023-04-15T07:38:32;4.13;;;1.92;;
31782;SDS011;18351;47.560;9.708;2023-04-15T07:40:57;3.90;;;1.67;;
31782;SDS011;18351;47.560;9.708;2023-04-15T07:43:23;2.88;;;1.48;;
31782;SDS011;18351;47.560;9.708;2023-04-15T07:45:49;2.45;;;1.35;;
31782;SDS011;18351;47.560;9.708;2023-04-15T07:48:14;3.78;;;1.40;;
31782;SDS011;18351;47.560;9.708;2023-04-15T07:50:40;3.45;;;1.50;;
31782;SDS011;18351;47.560;9.708;2023-04-15T07:53:06;4.63;;;1.88;;
31782;SDS011;18351;47.560;9.708;2023-04-15T07:55:31;2.35;;;1.65;;
31782;SDS011;18351;47.560;9.708;2023-04-15T07:57:57;4.40;;;1.60;;
31782;SDS011;18351;47.560;9.708;2023-04-15T08:00:22;3.20;;;1.70;;
31782;SDS011;18351;47.560;9.708;2023-04-15T08:02:48;2.33;;;1.40;;
31782;SDS011;18351;47.560;9.708;2023-04-15T08:05:16;4.30;;;1.63;;
31782;SDS011;18351;47.560;9.708;2023-04-15T08:07:42;3.47;;;1.65;;
31782;SDS011;18351;47.560;9.708;2023-04-15T08:10:07;5.97;;;1.65;;
31782;SDS011;18351;47.560;9.708;2023-04-15T08:12:33;5.38;;;2.58;;
31782;SDS011;18351;47.560;9.708;2023-04-15T08:14:59;4.28;;;1.50;;
31782;SDS011;18351;47.560;9.708;2023-04-15T08:17:26;5.05;;;1.65;;
31782;SDS011;18351;47.560;9.708;2023-04-15T08:19:52;2.65;;;1.50;;
31782;SDS011;18351;47.560;9.708;2023-04-15T08:22:18;4.25;;;1.60;;
31782;SDS011;18351;47.560;9.708;2023-04-15T08:24:43;5.43;;;2.13;;
31782;SDS011;18351;47.560;9.708;2023-04-15T08:27:09;2.35;;;1.70;;
31782;SDS011;18351;47.560;9.708;2023-04-15T08:29:35;4.32;;;1.70;;
31782;SDS011;18351;47.560;9.708;2023-04-15T08:32:00;3.75;;;1.58;;
31782;SDS011;18351;47.560;9.708;2023-04-15T08:34:26;3.00;;;1.50;;
31782;SDS011;18351;47.560;9.708;2023-04-15T08:36:52;2.92;;;1.50;;
31782;SDS011;18351;47.560;9.708;2023-04-15T08:39:18;2.88;;;1.50;;
31782;SDS011;18351;47.560;9.708;2023-04-15T08:44:23;2.97;;;1.52;;
31782;SDS011;18351;47.560;9.708;2023-04-15T08:46:50;2.10;;;1.23;;
31782;SDS011;18351;47.560;9.708;2023-04-15T08:49:17;3.08;;;2.15;;
31782;SDS011;18351;47.560;9.708;2023-04-15T08:51:44;5.18;;;1.50;;
31782;SDS011;18351;47.560;9.708;2023-04-15T08:54:10;2.63;;;1.40;;
31782;SDS011;18351;47.560;9.708;2023-04-15T08:56:37;4.15;;;1.90;;
31782;SDS011;18351;47.560;9.708;2023-04-15T08:59:03;2.08;;;1.70;;
31782;SDS011;18351;47.560;9.708;2023-04-15T09:01:29;3.95;;;1.70;;
31782;SDS011;18351;47.560;9.708;2023-04-15T09:03:56;3.47;;;1.55;;
31782;SDS011;18351;47.560;9.708;2023-04-15T09:06:23;6.53;;;2.00;;
31782;SDS011;18351;47.560;9.708;2023-04-15T09:08:50;2.40;;;1.70;;
31782;SDS011;18351;47.560;9.708;2023-04-15T09:11:16;3.67;;;1.50;;
31782;SDS011;18351;47.560;9.708;2023-04-15T09:13:42;3.72;;;1.70;;
31782;SDS011;18351;47.560;9.708;2023-04-15T09:16:08;2.40;;;1.20;;
31782;SDS011;18351;47.560;9.708;2023-04-15T09:18:34;2.10;;;1.60;;
31782;SDS011;18351;47.560;9.708;2023-04-15T09:21:07;2.17;;;1.40;;
31782;SDS011;18351;47.560;9.708;2023-04-15T09:23:35;5.22;;;1.48;;
31782;SDS011;18351;47.560;9.708;2023-04-15T09:26:05;1.70;;;1.48;;
31782;SDS011;18351;47.560;9.708;2023-04-15T09:28:31;3.13;;;1.55;;
31782;SDS011;18351;47.560;9.708;2023-04-15T09:31:00;3.20;;;1.85;;
31782;SDS011;18351;47.560;9.708;2023-04-15T09:33:26;3.78;;;1.60;;
31782;SDS011;18351;47.560;9.708;2023-04-15T09:36:00;3.10;;;1.55;;
31782;SDS011;18351;47.560;9.708;2023-04-15T09:38:28;5.25;;;1.55;;
31782;SDS011;18351;47.560;9.708;2023-04-15T09:40:54;2.60;;;1.55;;
31782;SDS011;18351;47.560;9.708;2023-04-15T09:43:21;3.08;;;1.65;;
31782;SDS011;18351;47.560;9.708;2023-04-15T09:45:55;3.10;;;1.58;;
31782;SDS011;18351;47.560;9.708;2023-04-15T09:48:22;3.33;;;1.88;;
31782;SDS011;18351;47.560;9.708;2023-04-15T09:50:51;1.92;;;1.65;;
31782;SDS011;18351;47.560;9.708;2023-04-15T09:53:21;3.40;;;1.73;;
31782;SDS011;18351;47.560;9.708;2023-04-15T09:55:54;2.42;;;1.70;;
31782;SDS011;18351;47.560;9.708;2023-04-15T10:00:49;5.05;;;2.22;;
31782;SDS011;18351;47.560;9.708;2023-04-15T10:03:19;4.55;;;1.92;;
31782;SDS011;18351;47.560;9.708;2023-04-15T10:05:51;4.68;;;1.65;;
31782;SDS011;18351;47.560;9.708;2023-04-15T10:08:19;4.20;;;1.70;;
31782;SDS011;18351;47.560;9.708;2023-04-15T10:10:46;3.50;;;1.98;;
31782;SDS011;18351;47.560;9.708;2023-04-15T10:13:13;4.38;;;1.88;;
31782;SDS011;18351;47.560;9.708;2023-04-15T10:15:49;4.18;;;2.00;;
31782;SDS011;18351;47.560;9.708;2023-04-15T10:18:18;3.22;;;1.83;;
31782;SDS011;18351;47.560;9.708;2023-04-15T10:20:46;5.95;;;2.17;;
31782;SDS011;18351;47.560;9.708;2023-04-15T10:23:13;4.10;;;2.10;;
31782;SDS011;18351;47.560;9.708;2023-04-15T10:25:39;5.63;;;2.05;;
31782;SDS011;18351;47.560;9.708;2023-04-15T10:28:06;2.70;;;1.50;;
31782;SDS011;18351;47.560;9.708;2023-04-15T10:30:33;3.25;;;1.80;;
31782;SDS011;18351;47.560;9.708;2023-04-15T10:32:59;1.98;;;1.55;;
31782;SDS011;18351;47.560;9.708;2023-04-15T10:35:28;3.92;;;2.40;;
31782;SDS011;18351;47.560;9.708;2023-04-15T10:37:55;2.55;;;1.73;;
31782;SDS011;18351;47.560;9.708;2023-04-15T10:40:24;3.38;;;1.52;;
31782;SDS011;18351;47.560;9.708;2023-04-15T10:42:58;5.10;;;1.92;;
31782;SDS011;18351;47.560;9.708;2023-04-15T10:45:26;3.65;;;1.70;;
31782;SDS011;18351;47.560;9.708;2023-04-15T10:47:56;4.80;;;2.30;;
31782;SDS011;18351;47.560;9.708;2023-04-15T10:50:25;3.25;;;1.52;;
31782;SDS011;18351;47.560;9.708;2023-04-15T10:52:52;2.15;;;1.60;;
31782;SDS011;18351;47.560;9.708;2023-04-15T10:55:19;5.63;;;1.85;;
31782;SDS011;18351;47.560;9.708;2023-04-15T10:57:58;3.85;;;1.80;;
31782;SDS011;18351;47.560;9.708;2023-04-15T11:00:27;4.18;;;1.98;;
31782;SDS011;18351;47.560;9.708;2023-04-15T11:02:55;1.98;;;1.42;;
31782;SDS011;18351;47.560;9.708;2023-04-15T11:05:55;3.13;;;1.83;;
31782;SDS011;18351;47.560;9.708;2023-04-15T11:08:16;3.35;;;1.42;;
31782;SDS011;18351;47.560;9.708;2023-04-15T11:20:39;3.28;;;1.90;;
31782;SDS011;18351;47.560;9.708;2023-04-15T11:23:05;3.53;;;1.83;;
31782;SDS011;18351;47.560;9.708;2023-04-15T11:25:33;6.40;;;2.28;;
31782;SDS011;18351;47.560;9.708;2023-04-15T11:28:01;3.65;;;2.00;;
31782;SDS011;18351;47.560;9.708;2023-04-15T11:30:29;2.92;;;2.00;;
31782;SDS011;18351;47.560;9.708;2023-04-15T11:32:59;3.85;;;1.90;;
31782;SDS011;18351;47.560;9.708;2023-04-15T11:35:27;3.28;;;2.05;;
31782;SDS011;18351;47.560;9.708;2023-04-15T11:37:53;3.30;;;1.83;;
31782;SDS011;18351;47.560;9.708;2023-04-15T11:40:23;4.70;;;2.30;;
31782;SDS011;18351;47.560;9.708;2023-04-15T11:43:05;3.57;;;2.37;;
31782;SDS011;18351;47.560;9.708;2023-04-15T11:45:36;4.63;;;2.53;;
31782;SDS011;18351;47.560;9.708;2023-04-15T11:48:12;4.15;;;2.50;;
31782;SDS011;18351;47.560;9.708;2023-04-15T11:50:38;3.80;;;2.45;;
31782;SDS011;18351;47.560;9.708;2023-04-15T11:53:05;6.93;;;2.30;;
31782;SDS011;18351;47.560;9.708;2023-04-15T11:55:49;6.03;;;2.20;;
31782;SDS011;18351;47.560;9.708;2023-04-15T12:00:53;7.35;;;2.95;;
31782;SDS011;18351;47.560;9.708;2023-04-15T12:03:28;3.65;;;2.55;;
31782;SDS011;18351;47.560;9.708;2023-04-15T12:11:35;3.60;;;2.55;;
31782;SDS011;18351;47.560;9.708;2023-04-15T12:16:32;4.78;;;2.25;;
31782;SDS011;18351;47.560;9.708;2023-04-15T12:19:03;7.57;;;2.92;;
31782;SDS011;18351;47.560;9.708;2023-04-15T12:21:35;9.00;;;3.28;;
31782;SDS011;18351;47.560;9.708;2023-04-15T12:24:03;5.68;;;2.92;;
31782;SDS011;18351;47.560;9.708;2023-04-15T12:26:49;6.50;;;3.10;;
31782;SDS011;18351;47.560;9.708;2023-04-15T12:29:17;7.07;;;2.50;;
31782;SDS011;18351;47.560;9.708;2023-04-15T12:31:53;6.97;;;3.00;;
31782;SDS011;18351;47.560;9.708;2023-04-15T12:37:00;8.18;;;2.83;;
31782;SDS011;18351;47.560;9.708;2023-04-15T12:39:29;20.77;;;3.42;;
31782;SDS011;18351;47.560;9.708;2023-04-15T12:42:05;7.82;;;3.17;;
31782;SDS011;18351;47.560;9.708;2023-04-15T12:44:31;4.22;;;2.60;;
31782;SDS011;18351;47.560;9.708;2023-04-15T12:46:57;3.45;;;2.67;;
31782;SDS011;18351;47.560;9.708;2023-04-15T12:49:26;5.18;;;2.30;;
31782;SDS011;18351;47.560;9.708;2023-04-15T12:51:55;3.63;;;2.28;;
31782;SDS011;18351;47.560;9.708;2023-04-15T12:54:23;3.95;;;2.00;;
31782;SDS011;18351;47.560;9.708;2023-04-15T12:56:49;3.70;;;1.85;;
31782;SDS011;18351;47.560;9.708;2023-04-15T12:59:16;7.13;;;2.67;;
31782;SDS011;18351;47.560;9.708;2023-04-15T13:01:42;5.55;;;2.17;;
31782;SDS011;18351;47.560;9.708;2023-04-15T13:04:09;9.07;;;3.10;;
31782;SDS011;18351;47.560;9.708;2023-04-15T13:06:35;5.53;;;2.80;;
31782;SDS011;18351;47.560;9.708;2023-04-15T13:09:02;5.53;;;2.83;;
31782;SDS011;18351;47.560;9.708;2023-04-15T13:11:28;7.60;;;3.75;;
31782;SDS011;18351;47.560;9.708;2023-04-15T13:13:55;5.30;;;3.47;;
31782;SDS011;18351;47.560;9.708;2023-04-15T13:16:22;7.95;;;4.13;;
31782;SDS011;18351;47.560;9.708;2023-04-15T13:18:48;6.13;;;3.88;;
31782;SDS011;18351;47.560;9.708;2023-04-15T13:21:14;7.88;;;3.63;;
31782;SDS011;18351;47.560;9.708;2023-04-15T13:23:40;7.50;;;3.38;;
31782;SDS011;18351;47.560;9.708;2023-04-15T13:26:06;6.65;;;2.95;;
31782;SDS011;18351;47.560;9.708;2023-04-15T13:28:32;5.45;;;3.35;;
31782;SDS011;18351;47.560;9.708;2023-04-15T13:30:58;5.47;;;2.40;;
31782;SDS011;18351;47.560;9.708;2023-04-15T13:33:24;5.30;;;2.03;;
31782;SDS011;18351;47.560;9.708;2023-04-15T13:35:50;4.22;;;2.45;;
31782;SDS011;18351;47.560;9.708;2023-04-15T13:38:15;5.88;;;2.20;;
31782;SDS011;18351;47.560;9.708;2023-04-15T13:40:41;3.67;;;2.13;;
31782;SDS011;18351;47.560;9.708;2023-04-15T13:43:06;8.63;;;2.50;;
31782;SDS011;18351;47.560;9.708;2023-04-15T13:45:32;4.95;;;2.88;;
31782;SDS011;18351;47.560;9.708;2023-04-15T13:47:58;6.47;;;2.95;;
31782;SDS011;18351;47.560;9.708;2023-04-15T13:50:24;5.13;;;3.05;;
31782;SDS011;18351;47.560;9.708;2023-04-15T13:52:49;4.57;;;2.90;;
31782;SDS011;18351;47.560;9.708;2023-04-15T13:55:15;9.85;;;3.47;;
31782;SDS011;18351;47.560;9.708;2023-04-15T13:57:40;6.60;;;3.85;;
31782;SDS011;18351;47.560;9.708;2023-04-15T14:00:06;6.75;;;3.00;;
31782;SDS011;18351;47.560;9.708;2023-04-15T14:02:32;7.32;;;3.15;;
31782;SDS011;18351;47.560;9.708;2023-04-15T14:04:58;6.90;;;3.13;;
31782;SDS011;18351;47.560;9.708;2023-04-15T14:07:23;6.88;;;2.70;;
31782;SDS011;18351;47.560;9.708;2023-04-15T14:09:49;9.75;;;2.70;;
31782;SDS011;18351;47.560;9.708;2023-04-15T14:12:14;5.57;;;2.88;;
31782;SDS011;18351;47.560;9.708;2023-04-15T14:14:40;6.80;;;2.70;;
31782;SDS011;18351;47.560;9.708;2023-04-15T14:17:06;6.57;;;2.22;;
31782;SDS011;18351;47.560;9.708;2023-04-15T14:19:32;4.35;;;1.90;;
31782;SDS011;18351;47.560;9.708;2023-04-15T14:21:59;5.90;;;2.80;;
31782;SDS011;18351;47.560;9.708;2023-04-15T14:24:25;15.00;;;2.25;;
31782;SDS011;18351;47.560;9.708;2023-04-15T14:26:51;8.85;;;2.95;;
31782;SDS011;18351;47.560;9.708;2023-04-15T14:29:17;4.90;;;2.70;;
31782;SDS011;18351;47.560;9.708;2023-04-15T14:31:42;5.50;;;2.30;;
31782;SDS011;18351;47.560;9.708;2023-04-15T14:34:09;4.35;;;2.20;;
31782;SDS011;18351;47.560;9.708;2023-04-15T14:36:34;4.18;;;2.20;;
31782;SDS011;18351;47.560;9.708;2023-04-15T14:39:00;3.63;;;2.42;;
31782;SDS011;18351;47.560;9.708;2023-04-15T14:41:26;4.30;;;2.20;;
31782;SDS011;18351;47.560;9.708;2023-04-15T14:43:52;6.10;;;1.70;;
31782;SDS011;18351;47.560;9.708;2023-04-15T14:46:17;5.15;;;2.33;;
31782;SDS011;18351;47.560;9.708;2023-04-15T14:48:43;4.63;;;1.90;;
31782;SDS011;18351;47.560;9.708;2023-04-15T14:51:09;4.97;;;1.63;;
31782;SDS011;18351;47.560;9.708;2023-04-15T14:53:34;7.75;;;4.10;;
31782;SDS011;18351;47.560;9.708;2023-04-15T14:56:00;6.50;;;5.10;;
31782;SDS011;18351;47.560;9.708;2023-04-15T14:58:25;3.35;;;1.95;;
31782;SDS011;18351;47.560;9.708;2023-04-15T15:00:51;3.10;;;1.42;;
31782;SDS011;18351;47.560;9.708;2023-04-15T15:03:16;4.63;;;2.17;;
31782;SDS011;18351;47.560;9.708;2023-04-15T15:05:43;6.28;;;2.08;;
31782;SDS011;18351;47.560;9.708;2023-04-15T15:08:10;4.18;;;1.73;;
31782;SDS011;18351;47.560;9.708;2023-04-15T15:10:36;6.55;;;3.72;;
31782;SDS011;18351;47.560;9.708;2023-04-15T15:13:06;4.88;;;3.53;;